createdAt,value
2023-08-28T00:01:11.448Z,9.65
2023-08-28T00:03:38.009Z,9.86
2023-08-28T00:06:05.089Z,9.80
2023-08-28T00:08:31.814Z,9.68
2023-08-28T00:10:58.401Z,9.68
2023-08-28T00:13:24.927Z,9.72
2023-08-28T00:15:51.487Z,9.64
2023-08-28T00:18:18.167Z,9.54
2023-08-28T00:20:44.672Z,9.43
2023-08-28T00:23:11.173Z,9.50
2023-08-28T00:25:37.661Z,9.57
2023-08-28T00:28:04.465Z,9.67
2023-08-28T00:30:30.957Z,9.62
2023-08-28T00:32:57.564Z,9.55
2023-08-28T00:35:24.198Z,9.62
2023-08-28T00:37:50.774Z,9.79
2023-08-28T00:40:17.674Z,9.91
2023-08-28T00:42:44.285Z,9.82
2023-08-28T00:45:12.265Z,9.80
2023-08-28T00:47:39.540Z,9.72
2023-08-28T00:50:06.783Z,9.82
2023-08-28T00:52:34.128Z,9.67
2023-08-28T00:55:01.099Z,9.51
2023-08-28T00:57:29.330Z,9.40
2023-08-28T00:59:56.843Z,9.31
2023-08-28T01:02:23.568Z,9.30
2023-08-28T01:04:53.213Z,9.31
2023-08-28T01:07:27.184Z,9.24
2023-08-28T01:10:12.509Z,9.15
2023-08-28T01:12:53.098Z,9.12
2023-08-28T01:15:22.194Z,9.18
2023-08-28T01:18:04.059Z,9.20
2023-08-28T01:20:32.888Z,9.26
2023-08-28T01:23:12.153Z,9.24
2023-08-28T01:25:39.117Z,9.13
2023-08-28T01:28:05.894Z,9.15
2023-08-28T01:30:32.927Z,9.14
2023-08-28T01:32:59.511Z,9.21
2023-08-28T01:35:28.161Z,9.11
2023-08-28T01:38:07.004Z,9.23
2023-08-28T01:40:58.554Z,9.42
2023-08-28T01:43:28.892Z,9.37
2023-08-28T01:45:56.115Z,9.47
2023-08-28T01:48:22.708Z,9.48
2023-08-28T01:50:49.243Z,9.41
2023-08-28T01:53:16.728Z,9.36
2023-08-28T01:55:46.281Z,9.36
2023-08-28T01:58:14.371Z,9.40
2023-08-28T02:00:40.990Z,9.25
2023-08-28T02:03:10.147Z,9.13
2023-08-28T02:05:37.598Z,9.10
2023-08-28T02:08:05.500Z,9.16
2023-08-28T02:10:32.188Z,9.25
2023-08-28T02:12:58.758Z,9.16
2023-08-28T02:15:25.612Z,9.12
2023-08-28T02:17:52.197Z,9.18
2023-08-28T02:20:18.855Z,9.24
2023-08-28T02:22:45.402Z,9.12
2023-08-28T02:25:14.785Z,9.13
2023-08-28T02:27:41.287Z,9.15
2023-08-28T02:30:08.595Z,9.31
2023-08-28T02:32:35.289Z,9.21
2023-08-28T02:35:01.866Z,9.12
2023-08-28T02:37:28.390Z,9.22
2023-08-28T02:39:54.889Z,9.14
2023-08-28T02:42:21.438Z,9.05
2023-08-28T02:44:48.106Z,9.04
2023-08-28T02:47:14.654Z,9.07
2023-08-28T02:49:41.130Z,9.07
2023-08-28T02:52:08.134Z,9.06
2023-08-28T02:54:34.724Z,9.06
2023-08-28T02:57:01.786Z,9.03
2023-08-28T02:59:28.773Z,8.99
2023-08-28T03:01:55.357Z,8.98
2023-08-28T03:04:21.932Z,8.93
2023-08-28T03:06:48.570Z,8.93
2023-08-28T03:09:17.920Z,8.93
2023-08-28T03:11:44.472Z,8.87
2023-08-28T03:14:11.062Z,8.84
2023-08-28T03:16:37.643Z,8.84
2023-08-28T03:19:04.542Z,9.03
2023-08-28T03:21:31.467Z,9.08
2023-08-28T03:23:57.999Z,9.06
2023-08-28T03:26:26.695Z,9.10
2023-08-28T03:28:53.264Z,8.96
2023-08-28T03:31:23.188Z,8.92
2023-08-28T03:33:49.766Z,8.84
2023-08-28T03:36:16.900Z,8.84
2023-08-28T03:38:43.513Z,8.76
2023-08-28T03:41:12.936Z,8.73
2023-08-28T03:43:39.529Z,8.62
2023-08-28T03:46:06.337Z,8.71
2023-08-28T03:48:32.860Z,8.73
2023-08-28T03:50:59.374Z,8.90
2023-08-28T03:53:26.392Z,9.00
2023-08-28T03:55:56.075Z,8.79
2023-08-28T03:58:23.403Z,8.64
2023-08-28T04:00:55.250Z,8.73
2023-08-28T04:03:22.296Z,8.91
2023-08-28T04:05:50.430Z,8.95
2023-08-28T04:08:16.978Z,8.94
2023-08-28T04:10:43.948Z,8.95
2023-08-28T04:13:10.499Z,8.91
2023-08-28T04:15:38.928Z,8.81
2023-08-28T04:18:05.885Z,8.66
2023-08-28T04:20:32.461Z,8.59
2023-08-28T04:22:58.986Z,8.49
2023-08-28T04:25:25.507Z,8.50
2023-08-28T04:27:51.987Z,8.49
2023-08-28T04:30:18.508Z,8.63
2023-08-28T04:32:45.066Z,8.62
2023-08-28T04:35:11.627Z,8.52
2023-08-28T04:37:38.163Z,8.56
2023-08-28T04:40:05.392Z,8.66
2023-08-28T04:42:31.940Z,8.70
2023-08-28T04:44:58.491Z,8.58
2023-08-28T04:47:25.170Z,8.48
2023-08-28T04:49:51.799Z,8.47
2023-08-28T04:52:18.303Z,8.41
2023-08-28T04:54:44.794Z,8.56
2023-08-28T04:57:11.350Z,8.74
2023-08-28T04:59:37.888Z,8.75
2023-08-28T05:02:04.585Z,8.81
2023-08-28T05:04:32.326Z,8.87
2023-08-28T05:06:59.500Z,8.91
2023-08-28T05:09:26.086Z,8.98
2023-08-28T05:11:52.683Z,8.90
2023-08-28T05:14:19.204Z,8.83
2023-08-28T05:16:45.710Z,8.88
2023-08-28T05:19:12.196Z,8.93
2023-08-28T05:21:38.762Z,9.08
2023-08-28T05:24:05.410Z,9.15
2023-08-28T05:26:31.939Z,9.18
2023-08-28T05:28:58.495Z,9.21
2023-08-28T05:31:26.199Z,9.18
2023-08-28T05:33:52.768Z,9.16
2023-08-28T05:36:20.626Z,9.17
2023-08-28T05:38:47.929Z,9.24
2023-08-28T05:41:16.482Z,9.46
2023-08-28T05:43:46.334Z,9.64
2023-08-28T05:46:12.897Z,9.52
2023-08-28T05:48:40.061Z,9.72
2023-08-28T05:51:06.570Z,9.68
2023-08-28T05:53:33.532Z,9.60
2023-08-28T05:56:00.083Z,9.77
2023-08-28T05:58:26.614Z,9.67
2023-08-28T06:00:53.141Z,9.69
2023-08-28T06:03:19.838Z,9.83
2023-08-28T06:05:46.606Z,9.76
2023-08-28T06:08:13.836Z,9.73
2023-08-28T06:10:41.609Z,9.68
2023-08-28T06:13:10.935Z,9.80
2023-08-28T06:15:37.438Z,9.80
2023-08-28T06:18:05.824Z,9.97
2023-08-28T06:20:32.578Z,9.99
2023-08-28T06:22:59.167Z,9.93
2023-08-28T06:25:25.909Z,9.98
2023-08-28T06:27:52.803Z,10.10
2023-08-28T06:30:20.451Z,10.21
2023-08-28T06:32:47.117Z,10.33
2023-08-28T06:35:13.678Z,10.41
2023-08-28T06:37:51.686Z,10.50
2023-08-28T06:40:22.426Z,10.52
2023-08-28T06:43:16.208Z,10.58
2023-08-28T06:46:33.507Z,10.55
2023-08-28T06:49:03.479Z,10.65
2023-08-28T06:51:30.265Z,10.71
2023-08-28T06:53:57.979Z,10.77
2023-08-28T06:56:24.560Z,10.84
2023-08-28T06:58:51.223Z,10.85
2023-08-28T07:01:17.863Z,10.84
2023-08-28T07:03:44.506Z,10.92
2023-08-28T07:06:11.286Z,10.82
2023-08-28T07:08:37.851Z,10.81
2023-08-28T07:11:04.452Z,10.74
2023-08-28T07:13:31.039Z,10.87
2023-08-28T07:15:57.932Z,10.88
2023-08-28T07:18:24.624Z,10.93
2023-08-28T07:20:51.315Z,10.98
2023-08-28T07:23:17.936Z,10.92
2023-08-28T07:25:45.537Z,11.02
2023-08-28T07:28:12.279Z,11.30
2023-08-28T07:30:38.942Z,11.46
2023-08-28T07:33:05.888Z,11.57
2023-08-28T07:35:36.284Z,11.71
2023-08-28T07:38:05.028Z,11.80
2023-08-28T07:40:31.746Z,11.99
2023-08-28T07:42:58.295Z,12.00
2023-08-28T07:45:24.933Z,12.01
2023-08-28T07:47:51.622Z,12.18
2023-08-28T07:50:18.470Z,12.29
2023-08-28T07:52:45.022Z,12.47
2023-08-28T07:55:12.287Z,12.55
2023-08-28T07:57:39.040Z,12.58
2023-08-28T08:00:11.409Z,12.58
2023-08-28T08:02:39.911Z,12.57
2023-08-28T08:05:07.086Z,12.54
2023-08-28T08:07:33.717Z,12.80
2023-08-28T08:10:00.340Z,12.78
2023-08-28T08:12:29.969Z,13.10
2023-08-28T08:14:56.479Z,13.22
2023-08-28T08:17:23.104Z,13.48
2023-08-28T08:19:49.733Z,13.52
2023-08-28T08:22:16.271Z,13.79
2023-08-28T08:24:42.885Z,13.91
2023-08-28T08:27:09.457Z,13.91
2023-08-28T08:29:36.001Z,13.84
2023-08-28T08:32:02.725Z,13.94
2023-08-28T08:34:29.793Z,13.98
2023-08-28T08:36:56.412Z,14.10
2023-08-28T08:39:24.411Z,14.33
2023-08-28T08:41:51.322Z,14.34
2023-08-28T08:44:17.904Z,14.47
2023-08-28T08:46:48.349Z,14.40
2023-08-28T08:49:20.674Z,14.10
2023-08-28T08:51:50.015Z,14.12
2023-08-28T08:54:25.961Z,14.20
2023-08-28T08:57:01.186Z,14.16
2023-08-28T08:59:28.005Z,14.26
2023-08-28T09:01:55.188Z,14.34
2023-08-28T09:04:22.436Z,14.33
2023-08-28T09:06:50.339Z,14.32
2023-08-28T09:09:17.177Z,14.41
2023-08-28T09:11:46.317Z,14.48
2023-08-28T09:14:13.824Z,14.25
2023-08-28T09:16:40.402Z,14.47
2023-08-28T09:19:08.306Z,14.62
2023-08-28T09:21:48.889Z,14.91
2023-08-28T09:24:21.555Z,14.94
2023-08-28T09:26:55.115Z,15.09
2023-08-28T09:29:23.726Z,15.42
2023-08-28T09:31:52.440Z,15.55
2023-08-28T09:34:21.338Z,15.52
2023-08-28T09:36:48.091Z,15.58
2023-08-28T09:39:14.939Z,15.44
2023-08-28T09:41:47.629Z,15.55
2023-08-28T09:44:20.103Z,15.44
2023-08-28T09:46:48.366Z,15.49
2023-08-28T09:49:15.259Z,15.59
2023-08-28T09:51:43.791Z,15.54
2023-08-28T09:54:11.950Z,15.67
2023-08-28T09:56:39.798Z,16.03
2023-08-28T09:59:10.751Z,16.01
2023-08-28T10:01:38.981Z,16.23
2023-08-28T10:04:07.711Z,16.29
2023-08-28T10:06:40.528Z,16.25
2023-08-28T10:09:13.996Z,16.14
2023-08-28T10:11:40.861Z,16.49
2023-08-28T10:14:08.436Z,16.14
2023-08-28T10:16:43.386Z,16.42
2023-08-28T10:19:39.162Z,16.71
2023-08-28T10:22:08.567Z,16.83
2023-08-28T10:24:42.715Z,16.99
2023-08-28T10:27:11.704Z,16.83
2023-08-28T10:29:38.882Z,16.92
2023-08-28T10:32:09.834Z,16.66
2023-08-28T10:34:40.950Z,16.64
2023-08-28T10:37:22.148Z,16.78
2023-08-28T10:39:59.364Z,16.78
2023-08-28T10:42:28.140Z,17.22
2023-08-28T10:44:57.998Z,17.22
2023-08-28T10:47:25.249Z,17.47
2023-08-28T10:49:55.874Z,17.68
2023-08-28T10:52:23.489Z,17.68
2023-08-28T10:54:51.464Z,17.96
2023-08-28T10:57:41.178Z,17.94
2023-08-28T11:00:22.373Z,18.02
2023-08-28T11:03:16.039Z,18.07
2023-08-28T11:05:43.801Z,17.90
2023-08-28T11:08:13.101Z,17.57
2023-08-28T11:10:45.411Z,17.47
2023-08-28T11:13:21.948Z,17.27
2023-08-28T11:15:50.883Z,17.39
2023-08-28T11:18:20.360Z,17.41
2023-08-28T11:20:49.167Z,17.59
2023-08-28T11:23:37.752Z,17.37
2023-08-28T11:26:27.121Z,17.35
2023-08-28T11:28:54.165Z,17.33
2023-08-28T11:31:21.111Z,17.01
2023-08-28T11:33:53.085Z,17.09
2023-08-28T11:36:20.223Z,17.32
2023-08-28T11:38:47.974Z,17.03
2023-08-28T11:41:15.350Z,17.06
2023-08-28T11:43:43.513Z,17.23
2023-08-28T11:46:11.516Z,17.47
2023-08-28T11:48:39.559Z,17.13
2023-08-28T11:51:10.302Z,17.04
2023-08-28T11:53:39.228Z,17.27
2023-08-28T11:56:07.021Z,17.49
2023-08-28T11:58:35.641Z,17.33
2023-08-28T12:01:06.460Z,17.24
2023-08-28T12:03:33.990Z,17.29
2023-08-28T12:06:07.275Z,17.14
2023-08-28T12:08:38.437Z,17.32
2023-08-28T12:11:10.023Z,17.35
2023-08-28T12:13:37.869Z,17.34
2023-08-28T12:16:21.699Z,17.28
2023-08-28T12:18:50.126Z,17.01
2023-08-28T12:21:18.422Z,16.94
2023-08-28T12:23:53.970Z,17.01
2023-08-28T12:26:25.202Z,17.09
2023-08-28T12:28:53.077Z,17.17
2023-08-28T12:31:31.621Z,17.19
2023-08-28T12:33:58.594Z,17.21
2023-08-28T12:36:35.951Z,17.19
2023-08-28T12:39:04.614Z,17.11
2023-08-28T12:41:36.162Z,16.93
2023-08-28T12:44:04.035Z,17.04
2023-08-28T12:46:31.393Z,17.05
2023-08-28T12:48:58.220Z,17.02
2023-08-28T12:51:25.239Z,16.97
2023-08-28T12:53:51.946Z,16.87
2023-08-28T12:56:18.516Z,16.72
2023-08-28T12:58:45.214Z,16.72
2023-08-28T13:01:11.877Z,16.70
2023-08-28T13:03:38.458Z,16.73
2023-08-28T13:06:05.838Z,16.71
2023-08-28T13:08:32.477Z,16.50
2023-08-28T13:10:59.090Z,16.48
2023-08-28T13:13:26.623Z,16.42
2023-08-28T13:15:54.732Z,16.34
2023-08-28T13:18:21.484Z,16.28
2023-08-28T13:20:48.463Z,16.07
2023-08-28T13:23:15.037Z,16.03
2023-08-28T13:25:42.218Z,16.04
2023-08-28T13:28:08.825Z,16.11
2023-08-28T13:30:35.679Z,16.18
2023-08-28T13:33:05.813Z,16.25
2023-08-28T13:35:34.126Z,16.28
2023-08-28T13:38:00.923Z,16.13
2023-08-28T13:40:27.746Z,16.08
2023-08-28T13:42:55.001Z,16.03
2023-08-28T13:45:21.628Z,16.08
2023-08-28T13:47:48.324Z,16.03
2023-08-28T13:50:15.014Z,15.96
2023-08-28T13:52:46.161Z,15.98
2023-08-28T13:55:13.566Z,16.08
2023-08-28T13:57:40.240Z,16.11
2023-08-28T14:00:13.098Z,16.02
2023-08-28T14:02:40.345Z,15.97
2023-08-28T14:05:08.741Z,15.94
2023-08-28T14:07:36.237Z,15.92
2023-08-28T14:10:04.681Z,15.99
2023-08-28T14:12:31.347Z,16.05
2023-08-28T14:15:00.872Z,16.19
2023-08-28T14:17:27.803Z,16.11
2023-08-28T14:19:54.462Z,16.15
2023-08-28T14:22:21.020Z,16.12
2023-08-28T14:24:47.748Z,16.30
2023-08-28T14:27:14.342Z,16.19
2023-08-28T14:29:41.094Z,16.23
2023-08-28T14:32:09.502Z,16.27
2023-08-28T14:34:36.033Z,16.39
2023-08-28T14:37:02.654Z,16.37
2023-08-28T14:39:30.139Z,16.60
2023-08-28T14:41:56.718Z,16.51
2023-08-28T14:44:23.336Z,16.43
2023-08-28T14:46:49.871Z,16.42
2023-08-28T14:49:16.912Z,16.76
2023-08-28T14:51:43.435Z,16.59
2023-08-28T14:54:09.944Z,16.68
2023-08-28T14:56:36.513Z,16.57
2023-08-28T14:59:03.967Z,16.62
2023-08-28T15:01:30.488Z,17.18
2023-08-28T15:03:56.988Z,17.16
2023-08-28T15:06:23.479Z,16.97
2023-08-28T15:08:50.048Z,16.61
2023-08-28T15:11:16.582Z,16.42
2023-08-28T15:13:43.089Z,16.41
2023-08-28T15:16:09.569Z,16.60
2023-08-28T15:18:36.071Z,16.41
2023-08-28T15:21:03.111Z,16.33
2023-08-28T15:23:29.625Z,16.53
2023-08-28T15:25:56.150Z,16.48
2023-08-28T15:28:22.739Z,16.56
2023-08-28T15:30:52.827Z,16.67
2023-08-28T15:33:19.386Z,16.88
2023-08-28T15:35:45.867Z,17.04
2023-08-28T15:38:12.411Z,17.01
2023-08-28T15:40:38.950Z,17.10
2023-08-28T15:43:05.782Z,16.98
2023-08-28T15:45:32.526Z,16.96
2023-08-28T15:47:59.336Z,16.92
2023-08-28T15:50:25.930Z,16.73
2023-08-28T15:52:52.720Z,16.62
2023-08-28T15:55:19.345Z,16.81
2023-08-28T15:57:45.894Z,16.95
2023-08-28T16:00:13.060Z,16.98
2023-08-28T16:02:39.629Z,16.99
2023-08-28T16:05:07.319Z,16.85
2023-08-28T16:07:33.862Z,16.88
2023-08-28T16:10:01.583Z,16.94
2023-08-28T16:12:28.107Z,17.25
2023-08-28T16:14:54.648Z,17.09
2023-08-28T16:17:21.131Z,17.37
2023-08-28T16:19:47.680Z,17.52
2023-08-28T16:22:14.172Z,17.37
2023-08-28T16:24:40.877Z,17.42
2023-08-28T16:27:07.697Z,17.32
2023-08-28T16:29:34.986Z,17.45
2023-08-28T16:32:02.216Z,17.14
2023-08-28T16:34:28.998Z,16.74
2023-08-28T16:36:55.919Z,16.59
2023-08-28T16:39:22.659Z,16.66
2023-08-28T16:41:49.280Z,16.44
2023-08-28T16:44:15.919Z,16.38
2023-08-28T16:46:42.715Z,16.35
2023-08-28T16:49:09.436Z,16.18
2023-08-28T16:51:36.081Z,16.01
2023-08-28T16:54:02.661Z,16.09
2023-08-28T16:56:29.373Z,16.01
2023-08-28T16:58:57.063Z,15.93
2023-08-28T17:01:23.739Z,15.97
2023-08-28T17:03:50.445Z,16.05
2023-08-28T17:06:17.167Z,16.00
2023-08-28T17:08:43.773Z,15.87
2023-08-28T17:11:10.391Z,15.78
2023-08-28T17:13:36.949Z,15.81
2023-08-28T17:16:04.118Z,15.84
2023-08-28T17:18:32.094Z,15.81
2023-08-28T17:20:59.819Z,15.78
2023-08-28T17:23:26.352Z,15.60
2023-08-28T17:25:52.843Z,15.42
2023-08-28T17:28:19.371Z,15.28
2023-08-28T17:30:45.883Z,15.27
2023-08-28T17:33:12.438Z,15.41
2023-08-28T17:35:39.001Z,15.51
2023-08-28T17:38:06.947Z,15.57
2023-08-28T17:40:33.486Z,15.62
2023-08-28T17:42:59.980Z,15.61
2023-08-28T17:45:26.677Z,15.60
2023-08-28T17:47:53.172Z,15.56
2023-08-28T17:50:20.090Z,15.50
2023-08-28T17:52:46.584Z,15.43
2023-08-28T17:55:13.078Z,15.36
2023-08-28T17:57:40.159Z,15.33
2023-08-28T18:00:07.512Z,15.34
2023-08-28T18:02:53.861Z,15.27
2023-08-28T18:05:26.140Z,15.23
2023-08-28T18:07:52.734Z,15.07
2023-08-28T18:10:19.274Z,14.81
2023-08-28T18:12:45.866Z,14.66
2023-08-28T18:15:12.386Z,14.52
2023-08-28T18:17:41.137Z,14.41
2023-08-28T18:20:11.118Z,14.36
2023-08-28T18:22:37.986Z,14.31
2023-08-28T18:25:04.837Z,14.27
2023-08-28T18:27:31.423Z,14.26
2023-08-28T18:30:23.412Z,14.22
2023-08-28T18:32:50.124Z,14.20
2023-08-28T18:35:16.902Z,14.15
2023-08-28T18:37:43.508Z,14.10
2023-08-28T18:40:11.258Z,14.12
2023-08-28T18:42:38.580Z,14.07
2023-08-28T18:45:05.493Z,14.16
2023-08-28T18:47:37.679Z,14.26
2023-08-28T18:50:13.947Z,14.37
2023-08-28T18:52:48.146Z,14.39
2023-08-28T18:55:40.514Z,14.16
2023-08-28T18:58:18.211Z,14.05
2023-08-28T19:00:52.093Z,13.96
2023-08-28T19:03:18.835Z,14.01
2023-08-28T19:05:45.950Z,14.10
2023-08-28T19:08:22.206Z,14.18
2023-08-28T19:10:48.946Z,14.19
2023-08-28T19:13:15.607Z,14.17
2023-08-28T19:15:42.459Z,14.13
2023-08-28T19:18:09.882Z,14.12
2023-08-28T19:20:49.603Z,14.02
2023-08-28T19:23:24.453Z,14.02
2023-08-28T19:25:51.514Z,13.82
2023-08-28T19:28:18.107Z,13.68
2023-08-28T19:30:44.660Z,13.59
2023-08-28T19:33:11.354Z,13.51
2023-08-28T19:35:38.005Z,13.46
2023-08-28T19:38:04.901Z,13.35
2023-08-28T19:40:31.643Z,13.27
2023-08-28T19:42:58.224Z,13.24
2023-08-28T19:45:24.741Z,13.19
2023-08-28T19:47:52.438Z,13.18
2023-08-28T19:50:19.144Z,13.22
2023-08-28T19:52:45.681Z,13.18
2023-08-28T19:55:14.950Z,13.12
2023-08-28T19:57:42.620Z,13.10
2023-08-28T20:00:11.133Z,13.06
2023-08-28T20:02:38.192Z,13.03
2023-08-28T20:05:05.737Z,12.94
2023-08-28T20:07:32.419Z,12.86
2023-08-28T20:09:59.055Z,12.79
2023-08-28T20:12:25.568Z,12.74
2023-08-28T20:14:52.825Z,12.68
2023-08-28T20:17:19.596Z,12.66
2023-08-28T20:19:46.162Z,12.62
2023-08-28T20:22:12.705Z,12.58
2023-08-28T20:24:39.280Z,12.57
2023-08-28T20:27:07.561Z,12.57
2023-08-28T20:29:34.151Z,12.54
2023-08-28T20:32:00.761Z,12.50
2023-08-28T20:34:27.504Z,12.52
2023-08-28T20:36:54.504Z,12.49
2023-08-28T20:39:21.257Z,12.49
2023-08-28T20:41:47.861Z,12.50
2023-08-28T20:44:14.528Z,12.57
2023-08-28T20:46:41.346Z,12.53
2023-08-28T20:49:08.390Z,12.50
2023-08-28T20:51:37.046Z,12.53
2023-08-28T20:54:04.120Z,12.52
2023-08-28T20:56:30.828Z,12.60
2023-08-28T20:58:57.431Z,12.74
2023-08-28T21:01:23.999Z,12.80
2023-08-28T21:03:50.569Z,12.85
2023-08-28T21:06:17.149Z,12.78
2023-08-28T21:08:45.200Z,12.57
2023-08-28T21:11:11.774Z,12.34
2023-08-28T21:13:38.347Z,12.22
2023-08-28T21:16:04.909Z,12.09
2023-08-28T21:18:31.620Z,12.00
2023-08-28T21:21:01.816Z,11.97
2023-08-28T21:23:28.956Z,11.93
2023-08-28T21:26:00.041Z,11.97
2023-08-28T21:28:34.775Z,12.04
2023-08-28T21:31:03.629Z,12.09
2023-08-28T21:33:31.464Z,12.04
2023-08-28T21:35:59.644Z,12.09
2023-08-28T21:38:27.426Z,12.10
2023-08-28T21:40:58.369Z,12.07
2023-08-28T21:43:25.288Z,11.87
2023-08-28T21:45:57.857Z,11.80
2023-08-28T21:48:28.239Z,11.68
2023-08-28T21:51:13.299Z,11.58
2023-08-28T21:53:58.606Z,11.45
2023-08-28T21:56:43.911Z,11.48
2023-08-28T21:59:29.269Z,11.49
2023-08-28T22:02:15.115Z,11.46
2023-08-28T22:05:00.487Z,11.43
2023-08-28T22:07:39.808Z,11.46
2023-08-28T22:10:18.426Z,11.38
2023-08-28T22:13:02.123Z,11.23
2023-08-28T22:15:32.909Z,11.17
2023-08-28T22:18:05.106Z,11.15
2023-08-28T22:20:32.109Z,11.18
2023-08-28T22:22:59.787Z,11.18
2023-08-28T22:25:26.943Z,11.14
2023-08-28T22:27:53.593Z,11.09
2023-08-28T22:30:20.381Z,11.05
2023-08-28T22:32:47.184Z,11.10
2023-08-28T22:35:14.001Z,11.12
2023-08-28T22:37:40.976Z,11.15
2023-08-28T22:40:10.765Z,11.16
2023-08-28T22:42:39.906Z,11.16
2023-08-28T22:45:06.841Z,11.11
2023-08-28T22:47:34.800Z,11.17
2023-08-28T22:50:01.593Z,11.05
2023-08-28T22:52:28.266Z,11.08
2023-08-28T22:54:54.960Z,11.08
2023-08-28T22:57:21.527Z,11.05
2023-08-28T22:59:48.066Z,10.97
2023-08-28T23:02:14.655Z,10.86
2023-08-28T23:04:41.273Z,10.77
2023-08-28T23:07:08.419Z,10.74
2023-08-28T23:09:34.922Z,10.71
2023-08-28T23:12:01.810Z,10.74
2023-08-28T23:14:28.727Z,10.69
2023-08-28T23:16:55.468Z,10.77
2023-08-28T23:19:24.898Z,10.80
2023-08-28T23:21:54.581Z,10.87
2023-08-28T23:24:27.361Z,10.91
2023-08-28T23:27:00.921Z,10.89
2023-08-28T23:29:27.436Z,10.89
2023-08-28T23:31:54.010Z,10.90
2023-08-28T23:34:21.559Z,10.94
2023-08-28T23:36:50.109Z,10.92
2023-08-28T23:39:16.720Z,11.00
2023-08-28T23:41:43.400Z,11.07
2023-08-28T23:44:10.062Z,10.99
2023-08-28T23:46:36.646Z,10.91
2023-08-28T23:49:03.660Z,11.07
2023-08-28T23:51:30.523Z,11.08
2023-08-28T23:53:57.405Z,11.15
2023-08-28T23:56:23.979Z,10.99
2023-08-28T23:58:56.111Z,10.91
